sensor_id;sensor_type;location;lat;lon;timestamp;P1;durP1;ratioP1;P2;durP2;ratioP2
19038;SDS011;9652;49.014;12.052;2022-11-27T00:02:18;21.37;;;6.40;;
19038;SDS011;9652;49.014;12.052;2022-11-27T00:04:45;8.33;;;7.03;;
19038;SDS011;9652;49.014;12.052;2022-11-27T00:07:12;8.93;;;5.73;;
19038;SDS011;9652;49.014;12.052;2022-11-27T00:09:40;7.27;;;6.57;;
19038;SDS011;9652;49.014;12.052;2022-11-27T00:12:08;14.37;;;7.30;;
19038;SDS011;9652;49.014;12.052;2022-11-27T00:14:35;7.87;;;6.20;;
19038;SDS011;9652;49.014;12.052;2022-11-27T00:17:02;14.37;;;5.67;;
19038;SDS011;9652;49.014;12.052;2022-11-27T00:19:29;6.17;;;5.57;;
19038;SDS011;9652;49.014;12.052;2022-11-27T00:21:57;11.00;;;6.40;;
19038;SDS011;9652;49.014;12.052;2022-11-27T00:24:24;10.50;;;4.97;;
19038;SDS011;9652;49.014;12.052;2022-11-27T00:26:51;9.00;;;6.00;;
19038;SDS011;9652;49.014;12.052;2022-11-27T00:29:19;5.87;;;5.27;;
19038;SDS011;9652;49.014;12.052;2022-11-27T00:31:46;6.03;;;5.53;;
19038;SDS011;9652;49.014;12.052;2022-11-27T00:34:14;12.13;;;5.97;;
19038;SDS011;9652;49.014;12.052;2022-11-27T00:36:41;10.37;;;6.93;;
19038;SDS011;9652;49.014;12.052;2022-11-27T00:39:08;8.03;;;5.90;;
19038;SDS011;9652;49.014;12.052;2022-11-27T00:41:35;6.00;;;5.43;;
19038;SDS011;9652;49.014;12.052;2022-11-27T00:44:03;7.47;;;5.87;;
19038;SDS011;9652;49.014;12.052;2022-11-27T00:46:33;6.73;;;5.60;;
19038;SDS011;9652;49.014;12.052;2022-11-27T00:49:01;5.73;;;5.23;;
19038;SDS011;9652;49.014;12.052;2022-11-27T00:51:31;7.33;;;5.90;;
19038;SDS011;9652;49.014;12.052;2022-11-27T00:53:58;6.67;;;5.60;;
19038;SDS011;9652;49.014;12.052;2022-11-27T00:56:26;12.90;;;6.50;;
19038;SDS011;9652;49.014;12.052;2022-11-27T00:58:56;6.33;;;5.73;;
19038;SDS011;9652;49.014;12.052;2022-11-27T01:01:24;8.23;;;5.67;;
19038;SDS011;9652;49.014;12.052;2022-11-27T01:03:55;5.90;;;5.30;;
19038;SDS011;9652;49.014;12.052;2022-11-27T01:06:24;10.27;;;6.53;;
19038;SDS011;9652;49.014;12.052;2022-11-27T01:08:52;6.20;;;5.30;;
19038;SDS011;9652;49.014;12.052;2022-11-27T01:11:21;8.60;;;6.70;;
19038;SDS011;9652;49.014;12.052;2022-11-27T01:13:51;7.53;;;5.47;;
19038;SDS011;9652;49.014;12.052;2022-11-27T01:16:20;9.80;;;5.50;;
19038;SDS011;9652;49.014;12.052;2022-11-27T01:18:50;8.57;;;5.47;;
19038;SDS011;9652;49.014;12.052;2022-11-27T01:21:23;6.50;;;5.37;;
19038;SDS011;9652;49.014;12.052;2022-11-27T01:23:53;7.07;;;5.10;;
19038;SDS011;9652;49.014;12.052;2022-11-27T01:26:20;10.97;;;5.87;;
19038;SDS011;9652;49.014;12.052;2022-11-27T01:28:50;16.43;;;6.00;;
19038;SDS011;9652;49.014;12.052;2022-11-27T01:31:19;8.80;;;5.70;;
19038;SDS011;9652;49.014;12.052;2022-11-27T01:33:51;13.90;;;5.50;;
19038;SDS011;9652;49.014;12.052;2022-11-27T01:36:19;6.03;;;4.83;;
19038;SDS011;9652;49.014;12.052;2022-11-27T01:38:49;8.33;;;6.17;;
19038;SDS011;9652;49.014;12.052;2022-11-27T01:41:17;5.33;;;4.70;;
19038;SDS011;9652;49.014;12.052;2022-11-27T01:43:47;6.87;;;5.87;;
19038;SDS011;9652;49.014;12.052;2022-11-27T01:46:24;5.33;;;4.83;;
19038;SDS011;9652;49.014;12.052;2022-11-27T01:49:09;8.07;;;5.87;;
19038;SDS011;9652;49.014;12.052;2022-11-27T01:51:50;14.73;;;5.93;;
19038;SDS011;9652;49.014;12.052;2022-11-27T01:54:26;9.13;;;5.47;;
19038;SDS011;9652;49.014;12.052;2022-11-27T01:57:00;10.10;;;6.67;;
19038;SDS011;9652;49.014;12.052;2022-11-27T01:59:35;17.67;;;5.83;;
19038;SDS011;9652;49.014;12.052;2022-11-27T02:02:02;6.77;;;5.23;;
19038;SDS011;9652;49.014;12.052;2022-11-27T02:04:30;7.60;;;5.57;;
19038;SDS011;9652;49.014;12.052;2022-11-27T02:06:57;11.20;;;5.47;;
19038;SDS011;9652;49.014;12.052;2022-11-27T02:09:26;8.80;;;6.00;;
19038;SDS011;9652;49.014;12.052;2022-11-27T02:12:01;7.60;;;5.50;;
19038;SDS011;9652;49.014;12.052;2022-11-27T02:14:42;8.30;;;5.77;;
19038;SDS011;9652;49.014;12.052;2022-11-27T02:17:20;7.47;;;5.87;;
19038;SDS011;9652;49.014;12.052;2022-11-27T02:20:01;11.70;;;5.93;;
19038;SDS011;9652;49.014;12.052;2022-11-27T02:23:00;5.93;;;5.23;;
19038;SDS011;9652;49.014;12.052;2022-11-27T02:25:56;8.87;;;6.00;;
19038;SDS011;9652;49.014;12.052;2022-11-27T02:28:59;6.20;;;5.60;;
19038;SDS011;9652;49.014;12.052;2022-11-27T02:31:31;10.30;;;6.67;;
19038;SDS011;9652;49.014;12.052;2022-11-27T02:34:10;8.87;;;5.67;;
19038;SDS011;9652;49.014;12.052;2022-11-27T02:36:49;13.03;;;7.57;;
19038;SDS011;9652;49.014;12.052;2022-11-27T02:39:26;13.10;;;5.50;;
19038;SDS011;9652;49.014;12.052;2022-11-27T02:42:05;13.57;;;6.63;;
19038;SDS011;9652;49.014;12.052;2022-11-27T02:44:43;6.37;;;5.77;;
19038;SDS011;9652;49.014;12.052;2022-11-27T02:47:14;5.90;;;5.33;;
19038;SDS011;9652;49.014;12.052;2022-11-27T02:49:42;7.53;;;5.87;;
19038;SDS011;9652;49.014;12.052;2022-11-27T02:52:11;9.47;;;5.70;;
19038;SDS011;9652;49.014;12.052;2022-11-27T02:54:42;8.70;;;4.73;;
19038;SDS011;9652;49.014;12.052;2022-11-27T02:57:15;7.80;;;5.13;;
19038;SDS011;9652;49.014;12.052;2022-11-27T02:59:47;8.97;;;5.87;;
19038;SDS011;9652;49.014;12.052;2022-11-27T03:02:17;8.50;;;4.93;;
19038;SDS011;9652;49.014;12.052;2022-11-27T03:04:53;7.03;;;5.47;;
19038;SDS011;9652;49.014;12.052;2022-11-27T03:07:25;6.83;;;5.47;;
19038;SDS011;9652;49.014;12.052;2022-11-27T03:10:03;5.73;;;5.07;;
19038;SDS011;9652;49.014;12.052;2022-11-27T03:12:38;8.47;;;6.17;;
19038;SDS011;9652;49.014;12.052;2022-11-27T03:15:07;7.57;;;6.00;;
19038;SDS011;9652;49.014;12.052;2022-11-27T03:17:40;6.87;;;5.27;;
19038;SDS011;9652;49.014;12.052;2022-11-27T03:20:19;7.57;;;5.47;;
19038;SDS011;9652;49.014;12.052;2022-11-27T03:22:51;12.47;;;5.23;;
19038;SDS011;9652;49.014;12.052;2022-11-27T03:25:19;6.33;;;5.73;;
19038;SDS011;9652;49.014;12.052;2022-11-27T03:27:48;7.20;;;5.20;;
19038;SDS011;9652;49.014;12.052;2022-11-27T03:30:22;6.23;;;5.67;;
19038;SDS011;9652;49.014;12.052;2022-11-27T03:32:49;6.27;;;5.63;;
19038;SDS011;9652;49.014;12.052;2022-11-27T03:35:19;5.43;;;4.43;;
19038;SDS011;9652;49.014;12.052;2022-11-27T03:37:50;6.30;;;5.67;;
19038;SDS011;9652;49.014;12.052;2022-11-27T03:40:18;11.40;;;6.93;;
19038;SDS011;9652;49.014;12.052;2022-11-27T03:42:56;7.10;;;5.53;;
19038;SDS011;9652;49.014;12.052;2022-11-27T03:45:34;6.37;;;5.20;;
19038;SDS011;9652;49.014;12.052;2022-11-27T03:48:20;8.90;;;5.27;;
19038;SDS011;9652;49.014;12.052;2022-11-27T03:51:00;5.73;;;5.17;;
19038;SDS011;9652;49.014;12.052;2022-11-27T03:53:39;7.53;;;5.27;;
19038;SDS011;9652;49.014;12.052;2022-11-27T03:56:19;6.27;;;5.10;;
19038;SDS011;9652;49.014;12.052;2022-11-27T03:59:00;6.50;;;4.70;;
19038;SDS011;9652;49.014;12.052;2022-11-27T04:01:36;7.00;;;5.70;;
19038;SDS011;9652;49.014;12.052;2022-11-27T04:04:05;5.53;;;5.00;;
19038;SDS011;9652;49.014;12.052;2022-11-27T04:06:33;8.07;;;5.43;;
19038;SDS011;9652;49.014;12.052;2022-11-27T04:09:00;6.70;;;5.83;;
19038;SDS011;9652;49.014;12.052;2022-11-27T04:11:27;6.67;;;6.03;;
19038;SDS011;9652;49.014;12.052;2022-11-27T04:13:54;5.30;;;4.80;;
19038;SDS011;9652;49.014;12.052;2022-11-27T04:16:21;6.40;;;5.43;;
19038;SDS011;9652;49.014;12.052;2022-11-27T04:18:50;6.87;;;4.97;;
19038;SDS011;9652;49.014;12.052;2022-11-27T04:21:17;9.33;;;5.10;;
19038;SDS011;9652;49.014;12.052;2022-11-27T04:23:44;8.10;;;5.70;;
19038;SDS011;9652;49.014;12.052;2022-11-27T04:26:11;5.97;;;5.20;;
19038;SDS011;9652;49.014;12.052;2022-11-27T04:28:39;6.83;;;5.37;;
19038;SDS011;9652;49.014;12.052;2022-11-27T04:31:06;7.07;;;5.17;;
19038;SDS011;9652;49.014;12.052;2022-11-27T04:33:33;6.97;;;5.93;;
19038;SDS011;9652;49.014;12.052;2022-11-27T04:36:02;5.87;;;5.10;;
19038;SDS011;9652;49.014;12.052;2022-11-27T04:38:29;17.43;;;6.23;;
19038;SDS011;9652;49.014;12.052;2022-11-27T04:40:56;7.67;;;5.73;;
19038;SDS011;9652;49.014;12.052;2022-11-27T04:43:23;6.10;;;5.33;;
19038;SDS011;9652;49.014;12.052;2022-11-27T04:45:50;7.80;;;5.93;;
19038;SDS011;9652;49.014;12.052;2022-11-27T04:48:17;10.20;;;5.70;;
19038;SDS011;9652;49.014;12.052;2022-11-27T04:50:45;6.57;;;5.77;;
19038;SDS011;9652;49.014;12.052;2022-11-27T04:53:13;7.83;;;5.50;;
19038;SDS011;9652;49.014;12.052;2022-11-27T04:55:40;7.80;;;5.83;;
19038;SDS011;9652;49.014;12.052;2022-11-27T04:58:07;6.93;;;6.20;;
19038;SDS011;9652;49.014;12.052;2022-11-27T05:00:34;12.43;;;6.00;;
19038;SDS011;9652;49.014;12.052;2022-11-27T05:03:01;7.77;;;6.33;;
19038;SDS011;9652;49.014;12.052;2022-11-27T05:05:29;9.87;;;6.87;;
19038;SDS011;9652;49.014;12.052;2022-11-27T05:07:56;9.83;;;5.60;;
19038;SDS011;9652;49.014;12.052;2022-11-27T05:10:24;7.67;;;6.40;;
19038;SDS011;9652;49.014;12.052;2022-11-27T05:12:51;7.53;;;5.83;;
19038;SDS011;9652;49.014;12.052;2022-11-27T05:15:19;11.57;;;6.60;;
19038;SDS011;9652;49.014;12.052;2022-11-27T05:17:46;9.03;;;5.70;;
19038;SDS011;9652;49.014;12.052;2022-11-27T05:20:13;9.23;;;6.93;;
19038;SDS011;9652;49.014;12.052;2022-11-27T05:22:41;9.27;;;6.13;;
19038;SDS011;9652;49.014;12.052;2022-11-27T05:25:10;7.33;;;5.93;;
19038;SDS011;9652;49.014;12.052;2022-11-27T05:27:38;15.00;;;6.73;;
19038;SDS011;9652;49.014;12.052;2022-11-27T05:30:06;10.27;;;6.97;;
19038;SDS011;9652;49.014;12.052;2022-11-27T05:32:34;8.17;;;6.40;;
19038;SDS011;9652;49.014;12.052;2022-11-27T05:35:01;10.73;;;7.00;;
19038;SDS011;9652;49.014;12.052;2022-11-27T05:37:29;10.67;;;6.57;;
19038;SDS011;9652;49.014;12.052;2022-11-27T05:39:56;9.87;;;6.93;;
19038;SDS011;9652;49.014;12.052;2022-11-27T05:42:23;10.07;;;6.60;;
19038;SDS011;9652;49.014;12.052;2022-11-27T05:44:52;8.43;;;5.97;;
19038;SDS011;9652;49.014;12.052;2022-11-27T05:47:19;12.03;;;6.80;;
19038;SDS011;9652;49.014;12.052;2022-11-27T05:49:46;9.57;;;6.43;;
19038;SDS011;9652;49.014;12.052;2022-11-27T05:52:13;9.77;;;6.63;;
19038;SDS011;9652;49.014;12.052;2022-11-27T05:54:40;11.70;;;7.33;;
19038;SDS011;9652;49.014;12.052;2022-11-27T05:57:07;11.20;;;6.97;;
19038;SDS011;9652;49.014;12.052;2022-11-27T05:59:34;14.97;;;7.30;;
19038;SDS011;9652;49.014;12.052;2022-11-27T06:02:03;8.87;;;6.97;;
19038;SDS011;9652;49.014;12.052;2022-11-27T06:04:31;10.30;;;6.83;;
19038;SDS011;9652;49.014;12.052;2022-11-27T06:06:58;12.27;;;6.50;;
19038;SDS011;9652;49.014;12.052;2022-11-27T06:09:26;10.83;;;7.40;;
19038;SDS011;9652;49.014;12.052;2022-11-27T06:11:53;9.63;;;6.70;;
19038;SDS011;9652;49.014;12.052;2022-11-27T06:14:20;13.70;;;6.87;;
19038;SDS011;9652;49.014;12.052;2022-11-27T06:16:48;14.23;;;7.80;;
19038;SDS011;9652;49.014;12.052;2022-11-27T06:19:17;12.77;;;6.77;;
19038;SDS011;9652;49.014;12.052;2022-11-27T06:21:44;16.20;;;7.30;;
19038;SDS011;9652;49.014;12.052;2022-11-27T06:24:11;9.90;;;6.80;;
19038;SDS011;9652;49.014;12.052;2022-11-27T06:26:38;17.10;;;7.70;;
19038;SDS011;9652;49.014;12.052;2022-11-27T06:29:06;12.77;;;8.33;;
19038;SDS011;9652;49.014;12.052;2022-11-27T06:31:34;13.87;;;7.50;;
19038;SDS011;9652;49.014;12.052;2022-11-27T06:34:01;14.50;;;7.30;;
19038;SDS011;9652;49.014;12.052;2022-11-27T06:36:32;15.03;;;7.30;;
19038;SDS011;9652;49.014;12.052;2022-11-27T06:39:01;12.90;;;6.70;;
19038;SDS011;9652;49.014;12.052;2022-11-27T06:41:30;13.87;;;7.97;;
19038;SDS011;9652;49.014;12.052;2022-11-27T06:43:58;15.07;;;7.80;;
19038;SDS011;9652;49.014;12.052;2022-11-27T06:46:26;10.43;;;6.60;;
19038;SDS011;9652;49.014;12.052;2022-11-27T06:48:56;10.93;;;7.43;;
19038;SDS011;9652;49.014;12.052;2022-11-27T06:51:25;11.50;;;7.70;;
19038;SDS011;9652;49.014;12.052;2022-11-27T06:53:57;12.50;;;7.90;;
19038;SDS011;9652;49.014;12.052;2022-11-27T06:56:25;10.97;;;7.53;;
19038;SDS011;9652;49.014;12.052;2022-11-27T06:58:55;10.33;;;6.87;;
19038;SDS011;9652;49.014;12.052;2022-11-27T07:01:25;10.63;;;7.10;;
19038;SDS011;9652;49.014;12.052;2022-11-27T07:03:54;12.43;;;7.37;;
19038;SDS011;9652;49.014;12.052;2022-11-27T07:06:22;10.83;;;7.03;;
19038;SDS011;9652;49.014;12.052;2022-11-27T07:08:52;11.03;;;6.90;;
19038;SDS011;9652;49.014;12.052;2022-11-27T07:11:22;11.70;;;7.27;;
19038;SDS011;9652;49.014;12.052;2022-11-27T07:13:52;9.83;;;6.53;;
19038;SDS011;9652;49.014;12.052;2022-11-27T07:16:23;10.77;;;6.97;;
19038;SDS011;9652;49.014;12.052;2022-11-27T07:18:52;10.63;;;6.97;;
19038;SDS011;9652;49.014;12.052;2022-11-27T07:21:23;10.17;;;6.43;;
19038;SDS011;9652;49.014;12.052;2022-11-27T07:23:51;11.80;;;6.90;;
19038;SDS011;9652;49.014;12.052;2022-11-27T07:26:22;10.13;;;6.70;;
19038;SDS011;9652;49.014;12.052;2022-11-27T07:28:52;10.13;;;6.50;;
19038;SDS011;9652;49.014;12.052;2022-11-27T07:31:20;11.07;;;6.77;;
19038;SDS011;9652;49.014;12.052;2022-11-27T07:33:50;8.93;;;6.23;;
19038;SDS011;9652;49.014;12.052;2022-11-27T07:36:19;8.57;;;5.97;;
19038;SDS011;9652;49.014;12.052;2022-11-27T07:38:48;10.50;;;6.23;;
19038;SDS011;9652;49.014;12.052;2022-11-27T07:41:16;10.73;;;6.37;;
19038;SDS011;9652;49.014;12.052;2022-11-27T07:43:45;10.97;;;7.27;;
19038;SDS011;9652;49.014;12.052;2022-11-27T07:46:13;10.80;;;6.90;;
19038;SDS011;9652;49.014;12.052;2022-11-27T07:48:43;8.00;;;6.00;;
19038;SDS011;9652;49.014;12.052;2022-11-27T07:51:11;8.20;;;5.60;;
19038;SDS011;9652;49.014;12.052;2022-11-27T07:53:41;9.23;;;6.30;;
19038;SDS011;9652;49.014;12.052;2022-11-27T07:56:09;8.80;;;5.57;;
19038;SDS011;9652;49.014;12.052;2022-11-27T07:58:39;10.03;;;6.77;;
19038;SDS011;9652;49.014;12.052;2022-11-27T08:01:08;10.07;;;6.87;;
19038;SDS011;9652;49.014;12.052;2022-11-27T08:03:38;9.87;;;6.17;;
19038;SDS011;9652;49.014;12.052;2022-11-27T08:06:12;8.50;;;5.93;;
19038;SDS011;9652;49.014;12.052;2022-11-27T08:08:42;10.13;;;6.60;;
19038;SDS011;9652;49.014;12.052;2022-11-27T08:11:14;8.57;;;6.07;;
19038;SDS011;9652;49.014;12.052;2022-11-27T08:13:46;8.20;;;5.43;;
19038;SDS011;9652;49.014;12.052;2022-11-27T08:16:16;6.60;;;5.37;;
19038;SDS011;9652;49.014;12.052;2022-11-27T08:18:43;8.63;;;6.13;;
19038;SDS011;9652;49.014;12.052;2022-11-27T08:21:10;8.43;;;5.53;;
19038;SDS011;9652;49.014;12.052;2022-11-27T08:23:37;8.33;;;5.90;;
19038;SDS011;9652;49.014;12.052;2022-11-27T08:26:05;6.40;;;5.23;;
19038;SDS011;9652;49.014;12.052;2022-11-27T08:28:33;7.07;;;5.90;;
19038;SDS011;9652;49.014;12.052;2022-11-27T08:31:02;7.23;;;5.33;;
19038;SDS011;9652;49.014;12.052;2022-11-27T08:33:32;8.60;;;5.97;;
19038;SDS011;9652;49.014;12.052;2022-11-27T08:36:00;11.10;;;6.63;;
19038;SDS011;9652;49.014;12.052;2022-11-27T08:38:28;7.67;;;6.57;;
19038;SDS011;9652;49.014;12.052;2022-11-27T08:40:56;9.03;;;6.30;;
19038;SDS011;9652;49.014;12.052;2022-11-27T08:43:26;7.90;;;5.90;;
19038;SDS011;9652;49.014;12.052;2022-11-27T08:45:54;9.07;;;6.67;;
19038;SDS011;9652;49.014;12.052;2022-11-27T08:48:21;9.93;;;6.20;;
19038;SDS011;9652;49.014;12.052;2022-11-27T08:50:51;8.80;;;6.40;;
19038;SDS011;9652;49.014;12.052;2022-11-27T08:53:18;7.90;;;5.47;;
19038;SDS011;9652;49.014;12.052;2022-11-27T08:55:46;8.97;;;5.83;;
19038;SDS011;9652;49.014;12.052;2022-11-27T08:58:13;10.70;;;6.30;;
19038;SDS011;9652;49.014;12.052;2022-11-27T09:00:40;9.57;;;6.13;;
19038;SDS011;9652;49.014;12.052;2022-11-27T09:03:09;9.87;;;6.17;;
19038;SDS011;9652;49.014;12.052;2022-11-27T09:05:39;12.30;;;6.17;;
19038;SDS011;9652;49.014;12.052;2022-11-27T09:08:10;9.23;;;6.87;;
19038;SDS011;9652;49.014;12.052;2022-11-27T09:10:40;8.37;;;6.00;;
19038;SDS011;9652;49.014;12.052;2022-11-27T09:13:08;8.87;;;7.00;;
19038;SDS011;9652;49.014;12.052;2022-11-27T09:15:35;12.80;;;6.90;;
19038;SDS011;9652;49.014;12.052;2022-11-27T09:18:02;11.60;;;6.50;;
19038;SDS011;9652;49.014;12.052;2022-11-27T09:20:29;8.77;;;6.50;;
19038;SDS011;9652;49.014;12.052;2022-11-27T09:22:57;12.70;;;7.07;;
19038;SDS011;9652;49.014;12.052;2022-11-27T09:25:28;10.33;;;7.37;;
19038;SDS011;9652;49.014;12.052;2022-11-27T09:27:55;8.50;;;6.40;;
19038;SDS011;9652;49.014;12.052;2022-11-27T09:30:22;9.77;;;6.40;;
19038;SDS011;9652;49.014;12.052;2022-11-27T09:32:50;11.83;;;6.57;;
19038;SDS011;9652;49.014;12.052;2022-11-27T09:35:17;12.07;;;7.13;;
19038;SDS011;9652;49.014;12.052;2022-11-27T09:37:45;11.83;;;6.63;;
19038;SDS011;9652;49.014;12.052;2022-11-27T09:40:13;10.47;;;6.93;;
19038;SDS011;9652;49.014;12.052;2022-11-27T09:42:46;11.10;;;6.73;;
19038;SDS011;9652;49.014;12.052;2022-11-27T09:45:19;10.10;;;6.53;;
19038;SDS011;9652;49.014;12.052;2022-11-27T09:47:50;11.03;;;7.30;;
19038;SDS011;9652;49.014;12.052;2022-11-27T09:50:23;10.57;;;6.90;;
19038;SDS011;9652;49.014;12.052;2022-11-27T09:52:55;11.60;;;7.23;;
19038;SDS011;9652;49.014;12.052;2022-11-27T09:55:30;10.33;;;6.70;;
19038;SDS011;9652;49.014;12.052;2022-11-27T09:58:05;9.50;;;6.30;;
19038;SDS011;9652;49.014;12.052;2022-11-27T10:00:42;10.43;;;7.07;;
19038;SDS011;9652;49.014;12.052;2022-11-27T10:03:10;11.17;;;6.73;;
19038;SDS011;9652;49.014;12.052;2022-11-27T10:05:41;13.10;;;7.10;;
19038;SDS011;9652;49.014;12.052;2022-11-27T10:08:18;11.90;;;7.07;;
19038;SDS011;9652;49.014;12.052;2022-11-27T10:10:58;11.77;;;7.17;;
19038;SDS011;9652;49.014;12.052;2022-11-27T10:13:43;9.03;;;6.23;;
19038;SDS011;9652;49.014;12.052;2022-11-27T10:16:29;12.23;;;7.63;;
19038;SDS011;9652;49.014;12.052;2022-11-27T10:19:06;11.90;;;7.40;;
19038;SDS011;9652;49.014;12.052;2022-11-27T10:21:48;11.07;;;7.40;;
19038;SDS011;9652;49.014;12.052;2022-11-27T10:24:22;11.03;;;6.67;;
19038;SDS011;9652;49.014;12.052;2022-11-27T10:27:02;11.47;;;7.07;;
19038;SDS011;9652;49.014;12.052;2022-11-27T10:29:42;11.07;;;6.43;;
19038;SDS011;9652;49.014;12.052;2022-11-27T10:32:18;11.00;;;7.27;;
19038;SDS011;9652;49.014;12.052;2022-11-27T10:34:51;14.40;;;7.80;;
19038;SDS011;9652;49.014;12.052;2022-11-27T10:37:24;10.23;;;7.43;;
19038;SDS011;9652;49.014;12.052;2022-11-27T10:39:55;10.90;;;7.40;;
19038;SDS011;9652;49.014;12.052;2022-11-27T10:42:31;14.63;;;8.53;;
19038;SDS011;9652;49.014;12.052;2022-11-27T10:45:20;15.60;;;7.03;;
19038;SDS011;9652;49.014;12.052;2022-11-27T10:47:50;10.80;;;7.17;;
19038;SDS011;9652;49.014;12.052;2022-11-27T10:50:18;10.70;;;7.03;;
19038;SDS011;9652;49.014;12.052;2022-11-27T10:52:48;11.83;;;7.63;;
19038;SDS011;9652;49.014;12.052;2022-11-27T10:55:24;11.43;;;7.50;;
19038;SDS011;9652;49.014;12.052;2022-11-27T10:58:17;10.80;;;7.83;;
19038;SDS011;9652;49.014;12.052;2022-11-27T11:01:00;8.63;;;6.53;;
19038;SDS011;9652;49.014;12.052;2022-11-27T11:03:31;9.00;;;6.30;;
19038;SDS011;9652;49.014;12.052;2022-11-27T11:05:59;10.50;;;7.20;;
19038;SDS011;9652;49.014;12.052;2022-11-27T11:08:30;10.80;;;7.40;;
19038;SDS011;9652;49.014;12.052;2022-11-27T11:10:59;10.27;;;7.60;;
19038;SDS011;9652;49.014;12.052;2022-11-27T11:13:29;10.07;;;6.40;;
19038;SDS011;9652;49.014;12.052;2022-11-27T11:15:59;10.20;;;6.77;;
19038;SDS011;9652;49.014;12.052;2022-11-27T11:18:31;10.40;;;6.50;;
19038;SDS011;9652;49.014;12.052;2022-11-27T11:21:00;7.97;;;6.07;;
19038;SDS011;9652;49.014;12.052;2022-11-27T11:23:32;10.17;;;6.20;;
19038;SDS011;9652;49.014;12.052;2022-11-27T11:26:03;11.20;;;7.80;;
19038;SDS011;9652;49.014;12.052;2022-11-27T11:28:43;10.37;;;6.67;;
19038;SDS011;9652;49.014;12.052;2022-11-27T11:31:17;10.00;;;6.63;;
19038;SDS011;9652;49.014;12.052;2022-11-27T11:33:50;8.77;;;6.40;;
19038;SDS011;9652;49.014;12.052;2022-11-27T11:36:23;9.83;;;6.73;;
19038;SDS011;9652;49.014;12.052;2022-11-27T11:38:50;10.57;;;7.13;;
19038;SDS011;9652;49.014;12.052;2022-11-27T11:41:18;10.83;;;6.40;;
19038;SDS011;9652;49.014;12.052;2022-11-27T11:43:52;11.83;;;8.37;;
19038;SDS011;9652;49.014;12.052;2022-11-27T11:46:27;11.53;;;7.43;;
19038;SDS011;9652;49.014;12.052;2022-11-27T11:48:59;12.60;;;7.00;;
19038;SDS011;9652;49.014;12.052;2022-11-27T11:51:43;11.30;;;6.93;;
19038;SDS011;9652;49.014;12.052;2022-11-27T11:54:41;10.13;;;7.20;;
19038;SDS011;9652;49.014;12.052;2022-11-27T12:00:36;11.37;;;7.07;;
19038;SDS011;9652;49.014;12.052;2022-11-27T12:09:15;11.33;;;6.80;;
19038;SDS011;9652;49.014;12.052;2022-11-27T12:11:59;12.10;;;6.90;;
19038;SDS011;9652;49.014;12.052;2022-11-27T12:14:42;8.17;;;6.40;;
19038;SDS011;9652;49.014;12.052;2022-11-27T12:17:23;10.67;;;6.63;;
19038;SDS011;9652;49.014;12.052;2022-11-27T12:20:17;10.13;;;6.83;;
19038;SDS011;9652;49.014;12.052;2022-11-27T12:26:11;9.93;;;7.23;;
19038;SDS011;9652;49.014;12.052;2022-11-27T12:28:57;11.07;;;6.80;;
19038;SDS011;9652;49.014;12.052;2022-11-27T12:31:48;12.13;;;6.93;;
19038;SDS011;9652;49.014;12.052;2022-11-27T12:34:51;9.37;;;6.50;;
19038;SDS011;9652;49.014;12.052;2022-11-27T12:37:36;11.70;;;7.67;;
19038;SDS011;9652;49.014;12.052;2022-11-27T12:40:24;12.33;;;7.87;;
19038;SDS011;9652;49.014;12.052;2022-11-27T12:43:15;10.93;;;7.00;;
19038;SDS011;9652;49.014;12.052;2022-11-27T12:45:50;9.70;;;6.50;;
19038;SDS011;9652;49.014;12.052;2022-11-27T12:48:26;11.10;;;7.23;;
19038;SDS011;9652;49.014;12.052;2022-11-27T12:51:01;9.63;;;6.53;;
19038;SDS011;9652;49.014;12.052;2022-11-27T12:53:38;11.23;;;7.20;;
19038;SDS011;9652;49.014;12.052;2022-11-27T12:56:12;12.47;;;7.60;;
19038;SDS011;9652;49.014;12.052;2022-11-27T12:58:50;10.53;;;7.43;;
19038;SDS011;9652;49.014;12.052;2022-11-27T13:01:25;11.67;;;7.90;;
19038;SDS011;9652;49.014;12.052;2022-11-27T13:04:00;14.33;;;8.30;;
19038;SDS011;9652;49.014;12.052;2022-11-27T13:06:45;12.33;;;7.73;;
19038;SDS011;9652;49.014;12.052;2022-11-27T13:09:24;13.57;;;8.10;;
19038;SDS011;9652;49.014;12.052;2022-11-27T13:12:08;11.80;;;6.70;;
19038;SDS011;9652;49.014;12.052;2022-11-27T13:14:41;11.90;;;7.70;;
19038;SDS011;9652;49.014;12.052;2022-11-27T13:17:14;12.53;;;7.63;;
19038;SDS011;9652;49.014;12.052;2022-11-27T13:19:43;12.27;;;6.97;;
19038;SDS011;9652;49.014;12.052;2022-11-27T13:22:14;13.07;;;7.57;;
19038;SDS011;9652;49.014;12.052;2022-11-27T13:24:53;11.87;;;7.67;;
19038;SDS011;9652;49.014;12.052;2022-11-27T13:27:22;13.73;;;8.10;;
19038;SDS011;9652;49.014;12.052;2022-11-27T13:29:53;12.93;;;8.30;;
19038;SDS011;9652;49.014;12.052;2022-11-27T13:32:27;12.10;;;8.37;;
19038;SDS011;9652;49.014;12.052;2022-11-27T13:35:01;12.43;;;7.63;;
19038;SDS011;9652;49.014;12.052;2022-11-27T13:37:34;12.20;;;7.43;;
19038;SDS011;9652;49.014;12.052;2022-11-27T13:40:15;12.47;;;8.23;;
19038;SDS011;9652;49.014;12.052;2022-11-27T13:42:47;12.10;;;7.47;;
19038;SDS011;9652;49.014;12.052;2022-11-27T13:45:20;11.77;;;8.10;;
19038;SDS011;9652;49.014;12.052;2022-11-27T13:47:51;13.00;;;7.80;;
19038;SDS011;9652;49.014;12.052;2022-11-27T13:50:21;12.83;;;8.53;;
19038;SDS011;9652;49.014;12.052;2022-11-27T13:52:50;12.30;;;7.63;;
19038;SDS011;9652;49.014;12.052;2022-11-27T13:55:24;13.17;;;9.00;;
19038;SDS011;9652;49.014;12.052;2022-11-27T13:57:55;13.30;;;8.27;;
19038;SDS011;9652;49.014;12.052;2022-11-27T14:00:32;10.33;;;7.40;;
19038;SDS011;9652;49.014;12.052;2022-11-27T14:03:03;11.60;;;7.70;;
19038;SDS011;9652;49.014;12.052;2022-11-27T14:05:35;13.23;;;8.40;;
19038;SDS011;9652;49.014;12.052;2022-11-27T14:08:14;11.07;;;7.63;;
19038;SDS011;9652;49.014;12.052;2022-11-27T14:10:50;12.40;;;7.53;;
19038;SDS011;9652;49.014;12.052;2022-11-27T14:13:21;12.43;;;8.17;;
19038;SDS011;9652;49.014;12.052;2022-11-27T14:16:01;10.53;;;6.97;;
19038;SDS011;9652;49.014;12.052;2022-11-27T14:18:47;10.87;;;6.87;;
19038;SDS011;9652;49.014;12.052;2022-11-27T14:21:20;11.57;;;8.03;;
19038;SDS011;9652;49.014;12.052;2022-11-27T14:23:55;10.27;;;6.57;;
19038;SDS011;9652;49.014;12.052;2022-11-27T14:26:26;9.30;;;7.30;;
19038;SDS011;9652;49.014;12.052;2022-11-27T14:28:55;10.90;;;7.70;;
19038;SDS011;9652;49.014;12.052;2022-11-27T14:31:25;13.33;;;8.83;;
19038;SDS011;9652;49.014;12.052;2022-11-27T14:33:55;11.70;;;7.60;;
19038;SDS011;9652;49.014;12.052;2022-11-27T14:36:27;11.50;;;6.97;;
19038;SDS011;9652;49.014;12.052;2022-11-27T14:38:58;11.63;;;7.67;;
19038;SDS011;9652;49.014;12.052;2022-11-27T14:41:27;9.63;;;6.97;;
19038;SDS011;9652;49.014;12.052;2022-11-27T14:43:58;10.70;;;7.00;;
19038;SDS011;9652;49.014;12.052;2022-11-27T14:46:26;10.13;;;7.23;;
19038;SDS011;9652;49.014;12.052;2022-11-27T14:48:56;9.30;;;6.43;;
19038;SDS011;9652;49.014;12.052;2022-11-27T14:51:24;13.30;;;7.17;;
19038;SDS011;9652;49.014;12.052;2022-11-27T14:53:55;8.47;;;6.37;;
19038;SDS011;9652;49.014;12.052;2022-11-27T14:56:29;9.27;;;6.83;;
19038;SDS011;9652;49.014;12.052;2022-11-27T14:58:59;10.30;;;6.57;;
19038;SDS011;9652;49.014;12.052;2022-11-27T15:01:28;12.77;;;7.23;;
19038;SDS011;9652;49.014;12.052;2022-11-27T15:03:57;10.07;;;6.87;;
19038;SDS011;9652;49.014;12.052;2022-11-27T15:06:28;11.70;;;7.93;;
19038;SDS011;9652;49.014;12.052;2022-11-27T15:09:02;9.67;;;7.80;;
19038;SDS011;9652;49.014;12.052;2022-11-27T15:11:30;8.67;;;6.83;;
19038;SDS011;9652;49.014;12.052;2022-11-27T15:13:59;13.87;;;8.23;;
19038;SDS011;9652;49.014;12.052;2022-11-27T15:16:28;8.87;;;6.60;;
19038;SDS011;9652;49.014;12.052;2022-11-27T15:18:58;11.17;;;7.53;;
19038;SDS011;9652;49.014;12.052;2022-11-27T15:21:29;13.57;;;7.63;;